Time;durP1;ratioP1;P1;durP2;ratioP2;P2;SDS_P1;SDS_P2;PMS_P1;PMS_P2;Temp;Humidity;BMP_temperature;BMP_pressure;BME280_temperature;BME280_humidity;BME280_pressure;Samples;Min_cycle;Max_cycle;Signal;HPM_P1;HPM_P2
2022/10/03 00:01:21;;;;;;;25.05;17.08;;;;;;;20.42;58.69;97402.56;5094137;28;20512;-70
2022/10/03 00:04:20;;;;;;;28.58;16.92;;;;;;;21.19;57.53;97402.75;5077880;28;20067;-69
2022/10/03 00:07:01;;;;;;;33.13;17.98;;;;;;;21.06;58.32;97392.59;5060951;28;20036;-69
2022/10/03 00:10:04;;;;;;;34.20;20.00;;;;;;;21.15;57.66;97375.53;5095566;28;20044;-69
2022/10/03 00:12:52;;;;;;;30.20;18.95;;;;;;;21.23;57.71;97388.41;5062152;28;20126;-70
2022/10/03 00:15:21;;;;;;;31.00;19.38;;;;;;;20.82;58.21;97380.81;5061719;28;20065;-69
2022/10/03 00:18:12;;;;;;;30.85;18.98;;;;;;;20.94;58.64;97373.97;5078561;28;20405;-69
2022/10/03 00:20:58;;;;;;;28.70;17.95;;;;;;;21.14;57.99;97370.41;5078333;28;20047;-69
2022/10/03 00:23:48;;;;;;;28.83;18.23;;;;;;;21.13;58.41;97357.97;5078685;28;20465;-68
2022/10/03 00:26:32;;;;;;;23.60;16.67;;;;;;;21.01;59.04;97352.94;5061338;28;20204;-68
2022/10/03 00:29:17;;;;;;;24.00;15.93;;;;;;;21.35;58.13;97351.09;5061854;28;20533;-68
2022/10/03 00:32:07;;;;;;;20.85;14.85;;;;;;;21.26;58.61;97354.66;5078546;28;20142;-69
2022/10/03 00:34:37;;;;;;;21.05;13.43;;;;;;;21.18;58.60;97352.56;5095355;28;20541;-69
2022/10/03 00:37:26;;;;;;;20.77;13.20;;;;;;;21.35;58.27;97352.97;5113333;28;20047;-70
2022/10/03 00:40:18;;;;;;;18.30;12.77;;;;;;;21.25;58.65;97353.06;5060660;28;20070;-69
2022/10/03 00:42:56;;;;;;;16.83;11.32;;;;;;;21.20;58.67;97355.78;5032313;28;20135;-70
2022/10/03 00:45:37;;;;;;;13.48;11.15;;;;;;;21.48;57.95;97366.63;5075878;28;20107;-70
2022/10/03 00:48:33;;;;;;;12.77;10.82;;;;;;;21.43;58.14;97342.34;5058973;28;20043;-70
2022/10/03 00:51:04;;;;;;;18.42;11.48;;;;;;;21.34;58.43;97329.75;5089422;28;20055;-69
2022/10/03 00:54:02;;;;;;;19.80;12.75;;;;;;;21.51;57.99;97330.16;5076133;28;20074;-70
2022/10/03 00:56:52;;;;;;;17.83;12.10;;;;;;;21.17;59.25;97335.53;5111349;28;20043;-69
2022/10/03 00:59:33;;;;;;;18.88;13.98;;;;;;;21.01;59.66;97327.84;5061042;28;20191;-69
2022/10/03 01:02:13;;;;;;;;;;;;;;;21.50;58.40;97323.13;5096375;28;20048;-70
2022/10/03 01:04:53;;;;;;;21.98;13.90;;;;;;;21.35;59.13;97317.88;5079724;28;19919;-70
2022/10/03 01:07:24;;;;;;;22.25;15.75;;;;;;;21.22;58.73;97313.91;5047826;28;20043;-70
2022/10/03 01:09:50;;;;;;;18.88;15.57;;;;;;;21.01;59.71;97298.97;5093963;28;20529;-71
2022/10/03 01:12:31;;;;;;;19.50;16.42;;;;;;;21.14;59.98;97286.72;5110567;28;20028;-72
2022/10/03 01:15:04;;;;;;;18.75;15.95;;;;;;;21.54;59.11;97299.88;5075838;28;20047;-70
2022/10/03 01:17:52;;;;;;;19.60;16.13;;;;;;;21.62;58.75;97300.06;5076029;28;20039;-71
2022/10/03 01:20:46;;;;;;;22.23;16.13;;;;;;;21.41;59.54;97268.94;5076003;28;20044;-70
2022/10/03 01:23:50;;;;;;;27.50;17.17;;;;;;;21.00;60.76;97269.56;5075302;28;20067;-70
2022/10/03 01:26:30;;;;;;;25.15;17.00;;;;;;;21.29;59.45;97278.50;5066283;28;20065;-71
2022/10/03 01:32:17;;;;;;;22.00;16.02;;;;;;;21.44;59.29;97244.06;5112554;28;20042;-71
2022/10/03 01:35:21;;;;;;;23.77;15.70;;;;;;;21.53;59.51;97255.03;5094683;28;20047;-70
2022/10/03 01:38:05;;;;;;;20.15;14.20;;;;;;;21.11;59.60;97254.91;5094707;28;20066;-69
2022/10/03 01:41:01;;;;;;;23.38;14.98;;;;;;;21.81;58.75;97270.47;5095083;28;20048;-69
2022/10/03 01:43:49;;;;;;;18.77;14.45;;;;;;;21.59;59.05;97264.69;5103985;28;20051;-69
2022/10/03 01:46:19;;;;;;;17.08;13.27;;;;;;;21.29;59.55;97238.81;5094964;28;20122;-69
2022/10/03 01:49:07;;;;;;;19.33;13.90;;;;;;;21.69;58.71;97259.22;5061411;28;20487;-68
2022/10/03 01:52:03;;;;;;;16.00;12.90;;;;;;;21.67;58.56;97253.28;5078080;28;20051;-68
2022/10/03 01:54:37;;;;;;;18.63;13.05;;;;;;;21.47;60.08;97248.91;5061665;28;20071;-68
2022/10/03 01:57:17;;;;;;;16.50;11.80;;;;;;;21.49;59.56;97210.81;5098553;28;20058;-68
2022/10/03 01:59:59;;;;;;;13.18;11.68;;;;;;;21.81;58.42;97238.03;5098160;28;20044;-69
2022/10/03 02:02:44;;;;;;;18.88;11.60;;;;;;;21.71;58.48;97247.00;5097999;28;20192;-68
2022/10/03 02:05:23;;;;;;;15.93;11.43;;;;;;;21.58;58.83;97230.69;5065891;28;20043;-70
2022/10/03 02:07:50;;;;;;;13.20;10.20;;;;;;;21.45;59.06;97234.03;5097731;28;20099;-68
2022/10/03 02:10:32;;;;;;;12.07;10.02;;;;;;;21.73;58.50;97231.34;5115992;28;20047;-70
2022/10/03 02:13:19;;;;;;;13.63;10.88;;;;;;;21.88;58.58;97238.47;5097641;28;20050;-70
2022/10/03 02:16:36;;;;;;;15.40;11.52;;;;;;;21.57;59.56;97234.50;5058858;28;20130;-69
2022/10/03 02:19:21;;;;;;;13.27;9.60;;;;;;;21.87;58.59;97242.28;5063954;28;20075;-68
2022/10/03 02:21:52;;;;;;;12.60;10.27;;;;;;;21.52;58.87;97205.63;5097702;28;20059;-69
2022/10/03 02:24:36;;;;;;;14.40;10.10;;;;;;;21.85;58.47;97198.53;5063665;28;20500;-69
2022/10/03 02:27:18;;;;;;;15.10;11.55;;;;;;;22.10;58.28;97219.84;5080220;28;20496;-69
2022/10/03 02:30:01;;;;;;;15.10;12.10;;;;;;;21.63;59.04;97214.44;5097367;28;20047;-69
2022/10/03 02:32:52;;;;;;;14.55;11.10;;;;;;;22.00;58.62;97219.97;5064223;28;20051;-69
2022/10/03 02:35:36;;;;;;;12.95;11.27;;;;;;;22.26;57.86;97237.50;5097493;28;20066;-69
2022/10/03 02:38:13;;;;;;;15.45;10.93;;;;;;;22.24;58.09;97209.91;5064028;28;20039;-69
2022/10/03 02:41:17;;;;;;;13.98;10.80;;;;;;;22.48;57.27;97207.16;5080832;28;20039;-71
2022/10/03 02:44:15;;;;;;;11.48;9.68;;;;;;;22.18;58.88;97240.81;5079828;28;20040;-68
2022/10/03 02:47:02;;;;;;;13.45;11.15;;;;;;;21.73;59.59;97242.13;5080254;28;20056;-69
2022/10/03 02:49:34;;;;;;;14.93;12.07;;;;;;;21.85;59.44;97217.44;5063717;28;20582;-69
2022/10/03 02:52:24;;;;;;;15.68;12.32;;;;;;;22.05;58.79;97183.97;5097096;28;20055;-68
2022/10/03 02:55:27;;;;;;;14.20;11.50;;;;;;;22.26;58.05;97212.34;5096361;28;20051;-70
2022/10/03 02:58:02;;;;;;;14.88;12.13;;;;;;;21.95;58.70;97211.94;5079940;28;20108;-69
2022/10/03 03:00:35;;;;;;;15.02;11.88;;;;;;;22.18;58.43;97221.91;5063276;28;20043;-70
2022/10/03 03:03:39;;;;;;;16.83;13.27;;;;;;;22.06;59.25;97194.50;5063024;28;20070;-69
2022/10/03 03:06:16;;;;;;;15.50;12.63;;;;;;;21.85;59.51;97201.22;5079274;28;20043;-69
2022/10/03 03:09:17;;;;;;;17.50;13.63;;;;;;;22.18;58.98;97248.94;5096427;28;20040;-69
2022/10/03 03:11:46;;;;;;;;;;;;;;;22.01;58.78;97232.38;5093331;28;20036;-70
2022/10/03 03:14:41;;;;;;;18.73;14.38;;;;;;;22.02;58.83;97212.38;5079094;28;19930;-70
2022/10/03 03:17:36;;;;;;;21.50;14.07;;;;;;;21.87;59.16;97198.22;5069092;28;20073;-70
2022/10/03 03:20:07;;;;;;;16.98;12.32;;;;;;;21.36;59.59;97169.06;5114430;28;21114;-70
2022/10/03 03:23:05;;;;;;;16.27;13.30;;;;;;;22.15;58.62;97200.84;5079164;28;20084;-69
2022/10/03 03:26:03;;;;;;;16.33;12.27;;;;;;;22.27;58.40;97192.31;5079526;28;20082;-70
2022/10/03 03:28:31;;;;;;;13.23;11.30;;;;;;;21.55;59.46;97178.06;5045863;28;20434;-70
2022/10/03 03:31:12;;;;;;;13.48;11.70;;;;;;;22.33;58.01;97186.53;5063136;28;20061;-69
2022/10/03 03:33:42;;;;;;;12.88;10.40;;;;;;;21.97;58.76;97187.31;5096280;28;20044;-72
2022/10/03 03:36:32;;;;;;;12.07;8.85;;;;;;;22.08;58.50;97200.38;5079173;28;20035;-70
2022/10/03 03:39:35;;;;;;;13.55;8.98;;;;;;;22.63;57.08;97215.88;5062268;28;20035;-71
2022/10/03 03:42:07;;;;;;;11.40;9.23;;;;;;;22.63;56.94;97190.72;5078318;28;20040;-70
2022/10/03 03:44:46;;;;;;;13.45;9.40;;;;;;;22.61;56.92;97187.50;5095606;28;20122;-69
2022/10/03 03:47:32;;;;;;;13.73;9.38;;;;;;;22.40;57.30;97191.59;5095897;28;20048;-72
2022/10/03 03:50:22;;;;;;;14.43;10.82;;;;;;;22.34;58.16;97180.03;5077812;28;20149;-69
2022/10/03 03:53:03;;;;;;;13.90;10.43;;;;;;;22.40;57.24;97181.56;5076230;28;20502;-69
2022/10/03 03:55:29;;;;;;;;;;;;;;;22.10;57.72;97164.97;5077084;28;20286;-69
2022/10/03 03:58:26;;;;;;;10.68;9.50;;;;;;;21.99;58.40;97158.88;5059886;28;19926;-70
2022/10/03 04:01:16;;;;;;;11.40;10.20;;;;;;;22.29;58.33;97155.78;5061314;28;20112;-70
2022/10/03 04:04:04;;;;;;;16.00;11.00;;;;;;;22.36;57.38;97145.38;5078619;28;20040;-71
2022/10/03 04:06:53;;;;;;;15.18;10.80;;;;;;;22.40;57.51;97140.19;5095696;28;20095;-69
2022/10/03 04:09:28;;;;;;;16.38;11.35;;;;;;;21.93;58.33;97122.22;5061522;28;20137;-71
2022/10/03 04:11:59;;;;;;;13.38;11.50;;;;;;;22.23;57.99;97111.00;5095088;28;20040;-72
2022/10/03 04:15:09;;;;;;;13.95;11.20;;;;;;;22.39;57.56;97115.03;5060280;28;20116;-72
2022/10/03 04:20:57;;;;;;;17.95;11.57;;;;;;;22.45;56.77;97110.38;5059186;28;20055;-76
2022/10/03 04:23:38;;;;;;;14.25;11.10;;;;;;;22.70;56.50;97135.16;5075152;28;20048;-74
2022/10/03 04:26:05;;;;;;;12.80;11.30;;;;;;;21.88;57.84;97130.38;5065633;28;20275;-76
2022/10/03 04:29:01;;;;;;;14.20;11.02;;;;;;;22.72;56.51;97115.91;5084414;28;20058;-75
2022/10/03 04:31:59;;;;;;;18.42;11.55;;;;;;;22.50;56.49;97111.09;5089057;28;20055;-76
2022/10/03 04:34:46;;;;;;;17.48;12.02;;;;;;;22.48;57.24;97098.97;5038719;28;20052;-73
2022/10/03 04:37:40;;;;;;;17.67;11.40;;;;;;;22.85;56.06;97104.31;5055310;28;20054;-73
2022/10/03 04:40:10;;;;;;;16.38;11.50;;;;;;;22.16;57.55;97104.31;5053850;28;20036;-73
2022/10/03 04:43:04;;;;;;;17.15;11.85;;;;;;;22.88;55.83;97112.63;5058437;28;20049;-72
2022/10/03 04:45:45;;;;;;;13.98;11.68;;;;;;;22.39;56.97;97103.41;5074000;28;20099;-75
2022/10/03 04:48:20;;;;;;;14.30;11.10;;;;;;;21.91;57.62;97094.66;5043343;28;20051;-75
2022/10/03 04:51:04;;;;;;;20.00;12.25;;;;;;;22.43;56.41;97089.03;5077604;28;20043;-75
2022/10/03 04:53:51;;;;;;;16.80;10.65;;;;;;;22.93;55.94;97088.19;5052385;28;20072;-74
2022/10/03 04:56:38;;;;;;;22.33;10.85;;;;;;;22.48;56.30;97070.00;5050648;28;20035;-73
2022/10/03 04:59:23;;;;;;;19.35;10.73;;;;;;;23.12;55.00;97071.88;5072248;28;20150;-74
2022/10/03 05:02:02;;;;;;;15.13;10.00;;;;;;;22.87;55.43;97069.63;5066087;28;20040;-73
2022/10/03 05:05:06;;;;;;;13.02;9.07;;;;;;;23.02;55.19;97063.94;5071435;28;20047;-77
2022/10/03 05:07:42;;;;;;;12.18;8.50;;;;;;;22.85;55.56;97086.16;5056778;28;20046;-77
2022/10/03 05:10:27;;;;;;;12.18;8.52;;;;;;;22.43;55.75;97080.13;5056971;28;20135;-74
2022/10/03 05:12:52;;;;;;;18.88;10.15;;;;;;;22.09;56.60;97074.97;5090982;28;20130;-73
2022/10/03 05:15:23;;;;;;;13.52;8.98;;;;;;;22.34;56.10;97057.56;5056205;28;20201;-73
2022/10/03 05:18:00;;;;;;;12.68;8.30;;;;;;;22.44;55.43;97031.13;5075842;28;20075;-72
2022/10/03 05:20:44;;;;;;;11.98;7.97;;;;;;;22.52;55.47;97049.44;5090822;28;20039;-74
2022/10/03 05:23:37;;;;;;;12.65;8.43;;;;;;;22.89;55.13;97046.59;5074072;28;20048;-74
2022/10/03 05:26:35;;;;;;;11.82;7.88;;;;;;;22.83;54.98;97042.34;5073026;28;20097;-74
2022/10/03 05:29:26;;;;;;;10.65;7.90;;;;;;;22.74;55.64;97011.69;5088817;28;20184;-73
2022/10/03 05:32:07;;;;;;;12.00;7.57;;;;;;;22.52;55.32;97008.84;5061789;28;20160;-74
2022/10/03 05:34:45;;;;;;;12.20;7.55;;;;;;;22.08;55.76;97005.78;5080325;28;20047;-74
2022/10/03 05:37:46;;;;;;;13.82;8.23;;;;;;;22.90;54.96;97010.31;5076984;28;20127;-75
2022/10/03 05:40:22;;;;;;;16.15;7.93;;;;;;;22.43;56.15;96980.84;5015101;28;20033;-73
2022/10/03 05:42:48;;;;;;;15.10;7.30;;;;;;;22.08;56.03;97005.78;5109542;28;20047;-73
2022/10/03 05:45:31;;;;;;;15.55;6.88;;;;;;;22.56;54.98;96977.38;5095918;28;20456;-73
2022/10/03 05:48:18;;;;;;;13.68;7.60;;;;;;;22.66;54.74;96996.16;5059718;28;20052;-74
2022/10/03 05:50:59;;;;;;;9.98;6.70;;;;;;;22.84;54.28;97003.38;5045271;28;20036;-77
2022/10/03 05:53:27;;;;;;;13.15;6.88;;;;;;;22.61;54.99;96993.53;5057746;28;20460;-73
2022/10/03 05:56:15;;;;;;;9.45;6.22;;;;;;;22.82;54.32;96994.75;5078862;28;20035;-73
2022/10/03 05:59:21;;;;;;;11.63;5.53;;;;;;;22.98;53.36;96998.78;5079237;28;20108;-78
2022/10/03 06:02:13;;;;;;;10.82;5.72;;;;;;;22.52;54.33;97008.84;5074777;28;20066;-82
2022/10/03 06:04:59;;;;;;;10.80;5.50;;;;;;;22.44;54.69;96989.75;5080572;28;20096;-83
2022/10/03 06:07:32;;;;;;;9.73;5.55;;;;;;;22.72;53.89;96994.97;5024110;28;20061;-80
2022/10/03 06:10:16;;;;;;;10.77;5.45;;;;;;;22.39;54.44;97004.16;5099909;28;20119;-79
2022/10/03 06:13:01;;;;;;;11.85;5.45;;;;;;;22.98;53.60;97000.66;5070403;28;20120;-79
2022/10/03 06:15:54;;;;;;;12.45;5.30;;;;;;;22.59;53.93;96984.91;5076293;28;20128;-78
2022/10/03 06:18:45;;;;;;;12.38;5.38;;;;;;;22.48;54.36;96967.22;5078783;28;20062;-78
2022/10/03 06:21:11;;;;;;;9.30;5.28;;;;;;;22.21;54.61;96982.59;5093196;28;20552;-81
2022/10/03 06:23:56;;;;;;;9.25;5.38;;;;;;;22.57;54.11;96997.91;5113523;28;20036;-81
2022/10/03 06:26:40;;;;;;;10.00;5.35;;;;;;;22.21;55.25;97001.50;5090576;28;20132;-80
2022/10/03 06:29:44;;;;;;;9.75;5.05;;;;;;;22.68;54.15;97004.75;5058822;28;20043;-78
2022/10/03 06:32:37;;;;;;;11.48;5.10;;;;;;;22.23;54.60;97050.69;5075339;28;20104;-78
2022/10/03 06:35:13;;;;;;;11.05;5.18;;;;;;;22.46;53.83;96953.22;5092989;28;20040;-76
2022/10/03 06:38:03;;;;;;;10.00;4.55;;;;;;;22.63;53.45;96999.44;5069597;28;20478;-78
2022/10/03 06:40:51;;;;;;;13.30;4.22;;;;;;;22.27;53.45;97011.94;5094909;28;20107;-80
2022/10/03 06:43:38;;;;;;;7.30;4.60;;;;;;;22.30;54.01;97005.13;5095163;28;20050;-79
2022/10/03 06:46:22;;;;;;;11.80;4.70;;;;;;;22.20;53.42;97025.06;5061595;28;20039;-80
2022/10/03 06:49:27;;;;;;;12.98;4.55;;;;;;;22.37;54.24;97017.16;5076720;28;20052;-78
2022/10/03 06:52:11;;;;;;;12.15;5.07;;;;;;;22.32;54.87;97022.69;5080082;28;20484;-79
2022/10/03 06:54:43;;;;;;;14.68;5.45;;;;;;;21.90;56.93;97012.00;5078314;28;21550;-78
2022/10/03 06:57:23;;;;;;;18.83;5.57;;;;;;;22.19;55.81;97001.81;5078000;28;20040;-76
2022/10/03 07:00:10;;;;;;;13.73;5.13;;;;;;;21.97;55.39;97011.63;5114198;28;20122;-76
2022/10/03 07:02:45;;;;;;;13.65;5.50;;;;;;;21.72;56.33;96999.28;5076628;28;20051;-76
2022/10/03 07:05:36;;;;;;;16.50;5.95;;;;;;;21.86;57.06;96997.50;5112837;28;20036;-75
2022/10/03 07:08:05;;;;;;;14.55;6.45;;;;;;;21.21;57.46;97001.06;5108002;28;20088;-76
2022/10/03 07:11:09;;;;;;;13.85;5.32;;;;;;;21.60;57.09;97012.44;5078274;28;20047;-78
2022/10/03 07:14:13;;;;;;;12.55;5.68;;;;;;;21.88;56.02;97011.47;5028129;28;20069;-76
2022/10/03 07:16:59;;;;;;;13.73;5.50;;;;;;;21.74;55.91;97024.13;5029992;28;20056;-75
2022/10/03 07:19:46;;;;;;;18.52;5.05;;;;;;;21.34;57.18;97035.47;5062975;28;20040;-75
2022/10/03 07:22:30;;;;;;;16.88;5.07;;;;;;;21.20;57.50;97015.66;5075732;28;20052;-76
2022/10/03 07:25:24;;;;;;;13.32;5.50;;;;;;;21.83;56.44;97002.66;5078217;28;20143;-80
2022/10/03 07:28:00;;;;;;;15.23;5.07;;;;;;;21.45;56.54;97039.63;5068749;28;20069;-79
2022/10/03 07:31:12;;;;;;;6.50;4.50;;;;;;;21.62;58.07;96983.22;5044917;28;20146;-79
2022/10/03 07:34:10;;;;;;;8.95;4.75;;;;;;;21.48;57.94;97001.25;5047042;28;20485;-78
2022/10/03 07:40:03;;;;;;;12.02;4.47;;;;;;;21.66;56.64;97033.66;5080420;28;20051;-79
2022/10/03 07:42:50;;;;;;;11.70;5.00;;;;;;;21.24;58.06;97022.91;5096410;28;20494;-83
2022/10/03 07:45:39;;;;;;;6.35;4.80;;;;;;;21.50;57.34;97029.56;5096831;28;20039;-81
2022/10/03 07:48:23;;;;;;;11.13;5.55;;;;;;;20.97;57.66;96981.41;5099349;28;20155;-81
2022/10/03 07:50:58;;;;;;;12.80;4.80;;;;;;;21.19;58.28;97024.84;5098087;28;20043;-80
2022/10/03 07:53:45;;;;;;;6.60;4.38;;;;;;;21.15;58.11;97005.72;5115821;28;20063;-81
2022/10/03 07:56:31;;;;;;;9.70;4.63;;;;;;;21.22;58.08;97013.47;5066058;28;20051;-80
2022/10/03 07:59:30;;;;;;;6.75;4.38;;;;;;;21.44;57.49;96995.63;5065948;28;20040;-79
2022/10/03 08:02:08;;;;;;;11.20;4.07;;;;;;;21.28;57.83;97004.22;5078051;28;20082;-81
2022/10/03 08:04:49;;;;;;;7.05;3.72;;;;;;;21.06;57.79;97049.84;5078340;28;20044;-80
2022/10/03 08:07:35;;;;;;;9.85;4.10;;;;;;;20.96;58.08;97074.22;5079882;28;20047;-80
2022/10/03 08:10:08;;;;;;;8.65;3.80;;;;;;;20.95;58.08;97018.63;5061463;28;20074;-83
2022/10/03 08:13:01;;;;;;;7.28;3.38;;;;;;;21.13;57.13;97023.28;5076811;28;20058;-81
2022/10/03 08:15:33;;;;;;;6.70;3.63;;;;;;;21.47;56.95;97040.97;5115230;28;20069;-80
2022/10/03 08:18:31;;;;;;;8.90;3.67;;;;;;;21.90;55.50;97047.13;5080003;28;20040;-80
2022/10/03 08:20:59;;;;;;;8.23;3.75;;;;;;;21.88;55.19;97041.22;5062619;28;20043;-79
2022/10/03 08:23:37;;;;;;;8.05;3.38;;;;;;;21.71;55.72;97022.78;5080079;28;20116;-80
2022/10/03 08:26:20;;;;;;;10.10;3.58;;;;;;;22.32;54.31;97043.50;5115578;28;20040;-78
2022/10/03 08:29:26;;;;;;;9.88;2.85;;;;;;;22.32;53.81;97048.91;5066380;28;20070;-79
2022/10/03 08:32:30;;;;;;;4.03;2.45;;;;;;;22.44;52.33;97066.28;5068608;28;20130;-79
2022/10/03 08:35:11;;;;;;;4.00;1.70;;;;;;;22.13;53.22;97062.47;5061805;28;20047;-79
2022/10/03 08:38:11;;;;;;;5.28;2.40;;;;;;;22.14;53.22;97058.66;5099149;28;20127;-78
2022/10/03 08:40:42;;;;;;;3.50;1.85;;;;;;;21.63;54.14;97060.47;5099646;28;20044;-79
2022/10/03 08:43:14;;;;;;;4.07;2.08;;;;;;;21.81;53.90;97058.88;5099550;28;20054;-81
2022/10/03 08:45:43;;;;;;;6.88;2.97;;;;;;;22.28;53.49;97067.63;5082782;28;20035;-81
2022/10/03 08:48:12;;;;;;;7.25;2.83;;;;;;;22.09;53.36;97066.88;5081053;28;20075;-79
2022/10/03 08:51:05;;;;;;;6.43;2.72;;;;;;;22.18;53.04;97081.31;5061591;28;20064;-81
2022/10/03 08:54:04;;;;;;;8.45;2.30;;;;;;;22.24;53.13;97063.91;5060873;28;20043;-80
2022/10/03 08:56:42;;;;;;;5.88;2.08;;;;;;;22.28;52.64;97078.44;5044375;28;20103;-79
2022/10/03 08:59:36;;;;;;;2.72;1.88;;;;;;;22.09;52.77;97074.16;5098381;28;20134;-80
2022/10/03 09:02:39;;;;;;;3.95;1.75;;;;;;;22.08;52.49;97086.06;5098343;28;20059;-82
2022/10/03 09:05:25;;;;;;;3.78;2.08;;;;;;;21.42;53.67;97088.81;5060263;28;20048;-80
2022/10/03 09:08:10;;;;;;;4.78;2.13;;;;;;;21.92;52.83;97079.28;5059010;28;20040;-79
2022/10/03 09:11:07;;;;;;;7.35;2.30;;;;;;;22.06;52.26;97082.84;5077140;28;20439;-81
2022/10/03 09:13:37;;;;;;;12.75;5.28;;;;;;;21.56;52.78;97084.31;5044588;28;20505;-81
2022/10/03 09:16:31;;;;;;;4.72;2.13;;;;;;;22.24;51.39;97096.38;5060456;28;20043;-74
2022/10/03 09:19:09;;;;;;;2.80;1.70;;;;;;;21.69;51.87;97102.53;5062761;28;20067;-80
2022/10/03 09:22:04;;;;;;;3.08;1.98;;;;;;;22.47;50.70;97091.94;5096568;28;20056;-81
2022/10/03 09:24:32;;;;;;;3.50;1.17;;;;;;;22.00;50.58;97101.06;5053992;28;20092;-80
2022/10/03 09:27:11;;;;;;;4.05;1.27;;;;;;;22.92;49.66;97096.63;5077487;28;20051;-80
2022/10/03 09:29:52;;;;;;;4.55;1.20;;;;;;;22.74;48.92;97116.41;5060911;28;20028;-80
2022/10/03 09:32:36;;;;;;;;;;;;;;;22.93;48.45;97131.50;5097619;28;20047;-79
2022/10/03 09:35:21;;;;;;;5.50;1.33;;;;;;;22.25;49.53;97111.47;5066202;28;19993;-78
2022/10/03 09:38:15;;;;;;;8.70;1.98;;;;;;;22.84;48.90;97102.69;5084089;28;20474;-76
2022/10/03 09:41:20;;;;;;;2.30;1.60;;;;;;;22.70;49.10;97115.38;5063297;28;20565;-77
2022/10/03 09:43:52;;;;;;;3.03;1.50;;;;;;;22.44;49.48;97112.28;5043835;28;20055;-77
2022/10/03 09:46:33;;;;;;;3.08;1.40;;;;;;;23.10;48.19;97120.09;5076699;28;20039;-80
2022/10/03 09:49:25;;;;;;;2.10;1.40;;;;;;;22.99;48.89;97119.47;5076624;28;20044;-79
2022/10/03 09:52:12;;;;;;;2.78;1.60;;;;;;;23.23;48.29;97111.19;5044056;28;20044;-80
2022/10/03 09:54:53;;;;;;;10.93;1.30;;;;;;;23.14;48.17;97121.91;5094034;28;20047;-79
2022/10/03 09:57:47;;;;;;;1.60;1.40;;;;;;;22.99;48.66;97126.78;5094923;28;20036;-79
2022/10/03 10:00:22;;;;;;;4.47;1.50;;;;;;;22.84;49.00;97125.16;5078207;28;20085;-81
2022/10/03 10:03:14;;;;;;;1.42;1.00;;;;;;;22.56;48.67;97164.03;5077131;28;20054;-80
2022/10/03 10:06:02;;;;;;;2.15;0.82;;;;;;;21.27;52.22;97186.19;5046579;28;20073;-81
2022/10/03 10:08:47;;;;;;;2.30;0.82;;;;;;;20.48;55.07;97166.88;5094240;28;20046;-78
2022/10/03 10:11:25;;;;;;;1.48;1.33;;;;;;;19.49;56.15;97140.97;5076372;28;20473;-77
2022/10/03 10:14:18;;;;;;;1.58;1.25;;;;;;;19.10;57.94;97139.16;5075966;28;20104;-83
2022/10/03 10:16:44;;;;;;;1.75;1.23;;;;;;;18.97;59.00;97142.44;5080249;28;20435;-72
2022/10/03 10:19:31;;;;;;;4.32;1.90;;;;;;;19.72;59.32;97153.00;5099579;28;20076;-82
2022/10/03 10:22:13;;;;;;;3.72;1.73;;;;;;;19.74;57.97;97150.84;5082854;28;20055;-78
2022/10/03 10:25:01;;;;;;;3.65;2.10;;;;;;;20.03;57.42;97157.94;5081575;28;20050;-80
2022/10/03 10:27:41;;;;;;;2.10;1.90;;;;;;;20.01;56.85;97165.53;5097506;28;20043;-75
2022/10/03 10:30:24;;;;;;;2.22;2.00;;;;;;;20.00;56.04;97169.28;5079370;28;20036;-73
2022/10/03 10:33:27;;;;;;;5.38;1.83;;;;;;;20.36;55.25;97182.59;5079920;28;20043;-77
2022/10/03 10:36:11;;;;;;;2.60;1.83;;;;;;;20.67;54.71;97189.38;5079186;28;20051;-80
2022/10/03 10:38:58;;;;;;;2.00;1.60;;;;;;;20.77;54.79;97192.78;5079497;28;20055;-76
2022/10/03 10:41:55;;;;;;;3.25;1.48;;;;;;;20.91;53.37;97195.66;5063467;28;20047;-77
2022/10/03 10:44:55;;;;;;;1.63;1.42;;;;;;;20.96;52.93;97219.94;5062019;28;20047;-76
2022/10/03 10:47:59;;;;;;;3.13;1.47;;;;;;;20.76;52.16;97247.03;5096326;28;20048;-76
2022/10/03 10:50:55;;;;;;;2.20;1.65;;;;;;;20.90;53.03;97231.81;5038284;28;20575;-75
2022/10/03 10:53:49;;;;;;;3.90;1.40;;;;;;;20.38;52.26;97228.94;5081739;28;20050;-75
2022/10/03 10:56:41;;;;;;;2.88;1.25;;;;;;;20.24;52.93;97258.41;5078723;28;20108;-71
2022/10/03 10:59:35;;;;;;;1.40;1.30;;;;;;;19.86;53.57;97232.94;5061918;28;20047;-78
2022/10/03 11:02:19;;;;;;;0.90;0.90;;;;;;;19.17;53.65;97277.75;5080101;28;20058;-78
2022/10/03 11:05:16;;;;;;;2.60;1.38;;;;;;;19.20;54.31;97260.25;5102351;28;20051;-71
2022/10/03 11:08:03;;;;;;;2.42;1.30;;;;;;;19.26;54.66;97273.44;5062957;28;20046;-75
2022/10/03 11:10:35;;;;;;;3.58;1.50;;;;;;;19.16;54.75;97269.94;5095659;28;20043;-78
2022/10/03 11:13:26;;;;;;;2.50;1.00;;;;;;;18.77;53.95;97275.03;5080495;28;20096;-79
2022/10/03 11:16:40;;;;;;;1.73;1.00;;;;;;;19.06;53.11;97304.91;5024229;28;20164;-78
2022/10/03 11:19:31;;;;;;;3.95;1.20;;;;;;;18.93;54.14;97303.53;5046127;28;20408;-77
2022/10/03 11:21:58;;;;;;;5.30;1.52;;;;;;;18.86;53.88;97326.38;5079343;28;20062;-77
2022/10/03 11:24:48;;;;;;;2.67;1.20;;;;;;;19.10;52.92;97279.06;5112711;28;20066;-75
2022/10/03 11:27:32;;;;;;;1.50;1.03;;;;;;;19.12;52.60;97318.09;5060865;28;20035;-80
2022/10/03 11:29:58;;;;;;;3.25;1.10;;;;;;;19.62;51.91;97320.00;5079825;28;20039;-81
2022/10/03 11:33:05;;;;;;;5.13;1.25;;;;;;;19.86;50.63;97302.16;5062780;28;20634;-76
2022/10/03 11:35:34;;;;;;;2.30;1.05;;;;;;;20.00;50.54;97333.63;5041401;28;20054;-81
2022/10/03 11:38:23;;;;;;;1.73;1.08;;;;;;;19.63;48.20;97329.69;5061632;28;20054;-79
2022/10/03 11:41:07;;;;;;;3.83;0.80;;;;;;;19.61;47.02;97364.97;5096535;28;20485;-79
2022/10/03 11:44:12;;;;;;;1.02;0.70;;;;;;;19.80;46.57;97351.75;5079065;28;20173;-78
2022/10/03 11:46:45;;;;;;;2.47;0.90;;;;;;;19.24;47.19;97359.00;5095333;28;20059;-74
2022/10/03 11:49:29;;;;;;;1.85;0.50;;;;;;;19.32;45.07;97379.22;5078897;28;20047;-75
2022/10/03 11:52:13;;;;;;;2.72;0.50;;;;;;;19.01;45.50;97383.72;5059574;28;20109;-76
2022/10/03 11:54:42;;;;;;;1.50;0.60;;;;;;;19.34;46.49;97379.75;5076301;28;20096;-76
2022/10/03 11:57:16;;;;;;;0.70;0.60;;;;;;;19.25;45.88;97400.97;5044041;28;20036;-78
2022/10/03 11:59:56;;;;;;;0.50;0.50;;;;;;;19.37;45.06;97409.63;5093925;28;20080;-76
2022/10/03 12:02:43;;;;;;;1.02;0.70;;;;;;;19.62;45.25;97419.63;5076378;28;20051;-75
2022/10/03 12:05:11;;;;;;;0.63;0.50;;;;;;;19.20;44.82;97429.75;5092815;28;20051;-76
2022/10/03 12:10:30;;;;;;;0.82;0.50;;;;;;;18.69;44.86;97462.94;5095402;28;20075;-78
2022/10/03 12:12:56;;;;;;;1.88;0.68;;;;;;;18.67;45.38;97422.88;5060291;28;20040;-77
2022/10/03 12:15:37;;;;;;;1.27;0.93;;;;;;;18.73;44.27;97442.53;5060787;28;20392;-77
2022/10/03 12:18:19;;;;;;;0.60;0.50;;;;;;;18.91;44.37;97428.63;5077806;28;20199;-77
2022/10/03 12:21:16;;;;;;;0.90;0.40;;;;;;;18.28;45.58;97449.25;5061134;28;20108;-77
2022/10/03 12:24:03;;;;;;;0.40;0.40;;;;;;;18.07;46.73;97474.38;5078184;28;20074;-76
2022/10/03 12:26:36;;;;;;;1.92;0.40;;;;;;;17.78;48.38;97483.00;5077525;28;20078;-77
2022/10/03 12:29:03;;;;;;;0.40;0.40;;;;;;;17.29;49.56;97444.69;5094588;28;20481;-77
2022/10/03 12:31:38;;;;;;;2.42;0.50;;;;;;;17.62;49.87;97455.19;5077678;28;20047;-77
2022/10/03 12:34:36;;;;;;;0.45;0.45;;;;;;;18.00;49.91;97470.28;5061157;28;20090;-77
2022/10/03 12:37:18;;;;;;;1.30;0.60;;;;;;;17.77;48.85;97466.09;5062133;28;20100;-77
2022/10/03 12:40:03;;;;;;;0.50;0.50;;;;;;;17.42;47.90;97481.81;5114599;28;20059;-77
2022/10/03 12:42:29;;;;;;;0.70;0.50;;;;;;;17.15;48.31;97491.75;5078425;28;20053;-76
2022/10/03 12:45:13;;;;;;;0.40;0.40;;;;;;;17.44;47.22;97511.94;5077450;28;20035;-77
2022/10/03 12:48:15;;;;;;;0.50;0.50;;;;;;;17.69;47.20;97528.31;5093890;28;20054;-77
2022/10/03 12:50:55;;;;;;;2.25;0.60;;;;;;;17.36;46.89;97538.41;5006552;28;20051;-76
2022/10/03 12:53:28;;;;;;;0.80;0.68;;;;;;;17.48;44.92;97544.44;5075316;28;20052;-74
2022/10/03 12:56:14;;;;;;;1.02;0.60;;;;;;;17.38;44.80;97552.34;5111532;28;20150;-73
2022/10/03 12:58:51;;;;;;;2.17;0.45;;;;;;;17.41;45.72;97541.09;5043746;28;20043;-72
2022/10/03 13:01:27;;;;;;;0.43;0.43;;;;;;;17.59;44.81;97552.34;5077510;28;20054;-72